Time;durP1;ratioP1;P1;durP2;ratioP2;P2;SDS_P1;SDS_P2;PMS_P1;PMS_P2;Temp;Humidity;BMP_temperature;BMP_pressure;BME280_temperature;BME280_humidity;BME280_pressure;Samples;Min_cycle;Max_cycle;Signal;HPM_P1;HPM_P2
2022/04/27 00:00:24;;;;;;;36.70;26.07;;;;;;;6.50;100.00;95845.69;4959842;28;20594;-80
2022/04/27 00:02:50;;;;;;;39.20;25.83;;;;;;;6.47;100.00;95842.53;4991502;28;20196;-80
2022/04/27 00:05:15;;;;;;;41.07;26.10;;;;;;;6.49;100.00;95844.06;4959841;28;20224;-80
2022/04/27 00:07:43;;;;;;;40.60;27.17;;;;;;;6.48;100.00;95844.19;5008272;28;20776;-79
2022/04/27 00:10:09;;;;;;;38.97;26.07;;;;;;;6.43;100.00;95838.53;4990778;28;20539;-80
2022/04/27 00:12:35;;;;;;;41.80;27.27;;;;;;;6.46;100.00;95826.25;4955993;28;20194;-80
2022/04/27 00:15:01;;;;;;;43.10;27.50;;;;;;;6.53;100.00;95837.72;5007745;28;20708;-81
2022/04/27 00:17:26;;;;;;;43.23;27.93;;;;;;;6.52;100.00;95832.69;4958488;28;20196;-80
2022/04/27 00:19:51;;;;;;;39.30;27.03;;;;;;;6.54;100.00;95835.97;4974984;28;20172;-81
2022/04/27 00:22:17;;;;;;;40.03;26.53;;;;;;;6.51;100.00;95826.69;4990311;28;20259;-80
2022/04/27 00:24:43;;;;;;;39.43;26.80;;;;;;;6.48;100.00;95826.94;4974678;28;20173;-81
2022/04/27 00:27:08;;;;;;;36.20;25.90;;;;;;;6.50;100.00;95827.63;4975232;28;20625;-80
2022/04/27 00:29:33;;;;;;;37.33;24.77;;;;;;;6.48;100.00;95829.50;4974892;28;20204;-79
2022/04/27 00:31:58;;;;;;;44.70;27.70;;;;;;;6.44;100.00;95825.50;4973551;28;20192;-78
2022/04/27 00:34:24;;;;;;;46.20;26.73;;;;;;;6.45;100.00;95824.59;4990174;28;20203;-80
2022/04/27 00:36:49;;;;;;;38.67;26.67;;;;;;;6.49;100.00;95826.00;4973444;28;20177;-80
2022/04/27 00:39:16;;;;;;;41.63;28.03;;;;;;;6.40;100.00;95823.28;4974823;28;20221;-79
2022/04/27 00:41:58;;;;;;;36.53;25.13;;;;;;;6.47;100.00;95821.91;4976370;28;20235;-79
2022/04/27 00:44:27;;;;;;;35.97;25.23;;;;;;;6.40;100.00;95833.59;4981355;28;20177;-80
2022/04/27 00:46:52;;;;;;;39.87;27.53;;;;;;;6.40;100.00;95821.53;4981288;28;20231;-79
2022/04/27 00:49:18;;;;;;;37.17;25.63;;;;;;;6.37;100.00;95819.19;4981216;28;20207;-79
2022/04/27 00:51:43;;;;;;;39.93;27.23;;;;;;;6.44;100.00;95829.84;4980810;28;20200;-79
2022/04/27 00:54:08;;;;;;;41.43;26.87;;;;;;;6.49;100.00;95827.75;4981643;28;20200;-80
2022/04/27 00:56:34;;;;;;;37.23;26.83;;;;;;;6.50;100.00;95831.97;4982015;28;20176;-78
2022/04/27 00:58:59;;;;;;;40.07;26.37;;;;;;;6.44;100.00;95835.81;4981564;28;20197;-79
2022/04/27 01:01:25;;;;;;;36.87;24.70;;;;;;;6.49;100.00;95838.06;4982008;28;20195;-80
2022/04/27 01:03:50;;;;;;;34.67;25.07;;;;;;;6.48;100.00;95839.84;4976560;28;20231;-80
2022/04/27 01:06:15;;;;;;;33.13;23.93;;;;;;;6.44;100.00;95845.31;4974509;28;20239;-79
2022/04/27 01:08:41;;;;;;;30.27;23.90;;;;;;;6.49;100.00;95849.22;4974215;28;20271;-80
2022/04/27 01:11:06;;;;;;;32.33;22.10;;;;;;;6.54;100.00;95846.31;4973671;28;20180;-80
2022/04/27 01:13:32;;;;;;;30.50;22.33;;;;;;;6.57;100.00;95851.22;5006363;28;20200;-80
2022/04/27 01:15:57;;;;;;;31.23;23.40;;;;;;;6.51;100.00;95860.22;4972846;28;20180;-79
2022/04/27 01:18:23;;;;;;;27.63;21.47;;;;;;;6.47;100.00;95848.50;4973334;28;20204;-80
2022/04/27 01:20:50;;;;;;;30.30;23.03;;;;;;;6.47;100.00;95853.69;4973459;28;20180;-80
2022/04/27 01:23:15;;;;;;;33.00;23.13;;;;;;;6.45;100.00;95852.97;4956955;28;20204;-80
2022/04/27 01:25:50;;;;;;;35.53;24.33;;;;;;;6.40;100.00;95849.09;4989553;28;20240;-80
2022/04/27 01:28:17;;;;;;;34.23;23.90;;;;;;;6.42;100.00;95844.63;4953064;29;20212;-81
2022/04/27 01:30:44;;;;;;;33.13;22.67;;;;;;;6.47;100.00;95853.69;4952833;28;20212;-80
2022/04/27 01:33:09;;;;;;;36.57;24.97;;;;;;;6.40;100.00;95846.50;4936155;29;20663;-80
2022/04/27 01:35:34;;;;;;;33.73;24.33;;;;;;;6.46;100.00;95851.22;4951678;29;20178;-80
2022/04/27 01:38:00;;;;;;;31.63;24.30;;;;;;;6.46;100.00;95852.03;4936573;29;20677;-80
2022/04/27 01:40:25;;;;;;;34.77;23.37;;;;;;;6.46;100.00;95852.03;4938288;29;20208;-81
2022/04/27 01:42:50;;;;;;;36.13;23.97;;;;;;;6.44;100.00;95846.16;4936332;29;20646;-80
2022/04/27 01:45:15;;;;;;;37.97;26.97;;;;;;;6.41;100.00;95848.97;4936980;29;20177;-79
2022/04/27 01:47:41;;;;;;;42.27;26.40;;;;;;;6.41;100.00;95850.72;4936787;29;20212;-79
2022/04/27 01:50:06;;;;;;;76.63;27.33;;;;;;;6.49;100.00;95856.94;4936428;29;20201;-80
2022/04/27 01:55:16;;;;;;;59.80;25.57;;;;;;;6.39;100.00;95852.59;4953364;29;20236;-78
2022/04/27 01:57:41;;;;;;;94.17;27.07;;;;;;;6.39;100.00;95852.59;4936305;29;20610;-78
2022/04/27 02:00:07;;;;;;;38.50;24.50;;;;;;;6.39;100.00;95856.00;4937739;29;20197;-79
2022/04/27 02:02:33;;;;;;;50.10;25.97;;;;;;;6.39;100.00;95853.44;4936265;29;20189;-79
2022/04/27 02:04:59;;;;;;;48.33;27.27;;;;;;;6.39;100.00;95861.16;4936892;29;20193;-78
2022/04/27 02:07:25;;;;;;;37.63;24.77;;;;;;;6.31;100.00;95858.31;4952733;29;20173;-77
2022/04/27 02:09:50;;;;;;;32.87;23.10;;;;;;;6.32;100.00;95866.88;4954160;28;20272;-79
2022/04/27 02:12:16;;;;;;;41.33;26.13;;;;;;;6.30;100.00;95864.44;4955168;28;20654;-78
2022/04/27 02:14:41;;;;;;;42.40;27.27;;;;;;;6.33;100.00;95864.19;4956037;29;20618;-78
2022/04/27 02:17:06;;;;;;;43.97;27.10;;;;;;;6.43;100.00;95865.16;4957573;28;20173;-80
2022/04/27 02:19:32;;;;;;;47.00;28.23;;;;;;;6.32;100.00;95866.88;4957568;28;20185;-77
2022/04/27 02:21:58;;;;;;;42.90;28.13;;;;;;;6.32;100.00;95862.56;4955590;29;20232;-77
2022/04/27 02:24:25;;;;;;;39.17;25.13;;;;;;;6.29;100.00;95862.78;4940313;29;20185;-76
2022/04/27 02:26:51;;;;;;;34.60;23.30;;;;;;;6.27;100.00;95871.56;4955504;28;20191;-79
2022/04/27 02:29:16;;;;;;;35.23;25.20;;;;;;;6.28;100.00;95868.06;4955408;28;20677;-77
2022/04/27 02:31:42;;;;;;;36.43;23.90;;;;;;;6.25;100.00;95866.50;4955121;28;20255;-78
2022/04/27 02:34:07;;;;;;;39.73;25.97;;;;;;;6.32;100.00;95866.88;4939317;29;20644;-78
2022/04/27 02:36:33;;;;;;;34.53;23.57;;;;;;;6.22;100.00;95864.16;4954636;28;20209;-78
2022/04/27 02:38:58;;;;;;;34.30;22.93;;;;;;;6.24;100.00;95864.88;4956056;29;20197;-79
2022/04/27 02:41:24;;;;;;;34.87;22.97;;;;;;;6.20;100.00;95866.03;4955477;29;20189;-79
2022/04/27 02:43:49;;;;;;;33.80;22.60;;;;;;;6.15;100.00;95870.72;4956148;29;20236;-79
2022/04/27 02:46:14;;;;;;;35.17;22.53;;;;;;;6.16;100.00;95875.75;4956140;28;20268;-78
2022/04/27 02:51:48;;;;;;;34.77;22.63;;;;;;;6.20;100.00;95863.47;4939572;29;20209;-80
2022/04/27 02:54:09;;;;;;;34.43;24.03;;;;;;;6.18;100.00;95873.06;4954768;29;20192;-77
2022/04/27 02:56:35;;;;;;;31.80;21.53;;;;;;;5.97;100.00;95875.44;4954675;29;20185;-78
2022/04/27 02:59:01;;;;;;;29.87;18.80;;;;;;;6.02;100.00;95869.97;4938843;29;20201;-79
2022/04/27 03:01:26;;;;;;;26.73;19.47;;;;;;;6.05;100.00;95870.56;4938158;29;20693;-79
2022/04/27 03:03:51;;;;;;;30.97;21.00;;;;;;;5.96;100.00;95868.66;4954781;29;20184;-79
2022/04/27 03:06:17;;;;;;;32.40;21.00;;;;;;;6.06;100.00;95873.97;4954819;29;20185;-78
2022/04/27 03:08:42;;;;;;;28.13;20.43;;;;;;;6.11;100.00;95883.00;4955213;28;20225;-78
2022/04/27 03:11:07;;;;;;;26.57;19.10;;;;;;;5.88;100.00;95883.81;4938806;29;20243;-77
2022/04/27 03:13:32;;;;;;;27.13;18.67;;;;;;;5.87;100.00;95877.03;4939201;29;20185;-79
2022/04/27 03:15:58;;;;;;;24.90;19.20;;;;;;;5.83;100.00;95881.59;4938978;29;20197;-79
2022/04/27 03:18:23;;;;;;;28.60;19.47;;;;;;;5.91;100.00;95883.63;4938703;29;20688;-79
2022/04/27 03:20:49;;;;;;;26.50;19.67;;;;;;;5.88;100.00;95876.91;4938563;29;20192;-79
2022/04/27 03:23:15;;;;;;;25.73;19.13;;;;;;;6.00;100.00;95880.38;4937491;29;20185;-79
2022/04/27 03:25:41;;;;;;;25.63;17.73;;;;;;;6.01;100.00;95878.63;4938965;29;20256;-79
2022/04/27 03:28:07;;;;;;;26.97;17.93;;;;;;;6.02;100.00;95885.44;4954859;28;20695;-78
2022/04/27 03:30:32;;;;;;;23.07;17.17;;;;;;;6.08;100.00;95878.06;4954964;28;20216;-78
2022/04/27 03:32:59;;;;;;;24.77;17.93;;;;;;;5.80;100.00;95886.94;4954217;28;20193;-78
2022/04/27 03:35:25;;;;;;;23.00;17.83;;;;;;;5.84;100.00;95890.97;4953299;29;20577;-79
2022/04/27 03:37:50;;;;;;;21.80;17.27;;;;;;;5.78;100.00;95883.66;4954647;29;20201;-77
2022/04/27 03:40:15;;;;;;;26.80;17.90;;;;;;;5.87;100.00;95888.16;4954208;28;20189;-77
2022/04/27 03:42:41;;;;;;;23.87;17.77;;;;;;;5.93;100.00;95889.50;4938208;29;20193;-79
2022/04/27 03:45:06;;;;;;;23.03;16.67;;;;;;;5.95;100.00;95895.38;4955411;28;20642;-77
2022/04/27 03:47:32;;;;;;;23.13;17.97;;;;;;;5.76;100.00;95898.41;4954015;29;20196;-79
2022/04/27 03:50:04;;;;;;;23.03;17.20;;;;;;;5.79;100.00;95900.75;4938001;29;20275;-79
2022/04/27 03:52:29;;;;;;;24.47;18.23;;;;;;;5.87;100.00;95898.47;4938254;29;20213;-80
2022/04/27 03:54:59;;;;;;;22.20;16.87;;;;;;;5.74;100.00;95902.84;4938328;29;20197;-79
2022/04/27 03:57:25;;;;;;;24.33;16.63;;;;;;;5.89;100.00;95901.75;4953765;28;20176;-80
2022/04/27 03:59:50;;;;;;;19.50;14.80;;;;;;;5.86;100.00;95907.13;4943551;28;20177;-80
2022/04/27 04:02:15;;;;;;;22.33;16.73;;;;;;;5.88;100.00;95899.28;4964973;28;20281;-78
2022/04/27 04:04:41;;;;;;;22.10;16.47;;;;;;;5.89;100.00;95906.91;5002620;28;20192;-78
2022/04/27 04:07:06;;;;;;;25.00;18.90;;;;;;;5.96;100.00;95908.13;4990290;28;20187;-80
2022/04/27 04:09:31;;;;;;;27.70;19.97;;;;;;;5.81;100.00;95919.50;4989569;28;20302;-79
2022/04/27 04:11:56;;;;;;;27.73;19.33;;;;;;;5.84;100.00;95926.22;4990596;28;20664;-77
2022/04/27 04:14:22;;;;;;;27.43;19.83;;;;;;;5.90;100.00;95924.03;5008238;28;20184;-79
2022/04/27 04:16:47;;;;;;;23.63;16.77;;;;;;;5.82;100.00;95913.41;4991448;28;20191;-80
2022/04/27 04:19:12;;;;;;;25.03;17.90;;;;;;;5.83;100.00;95922.81;4963030;28;20216;-78
2022/04/27 04:21:38;;;;;;;25.33;18.67;;;;;;;5.94;100.00;95930.63;4951543;29;20605;-79
2022/04/27 04:24:04;;;;;;;28.90;21.33;;;;;;;5.97;100.00;95935.56;4953426;28;20180;-78
2022/04/27 04:29:13;;;;;;;32.73;22.13;;;;;;;6.02;100.00;95937.00;4952133;29;20214;-78
2022/04/27 04:31:39;;;;;;;29.63;21.57;;;;;;;5.99;100.00;95939.78;4967503;28;20185;-78
2022/04/27 04:34:04;;;;;;;33.37;22.93;;;;;;;5.83;100.00;95948.59;4950663;28;20199;-78
2022/04/27 04:36:30;;;;;;;28.57;19.87;;;;;;;5.92;100.00;95953.13;4951924;29;20189;-79
2022/04/27 04:38:55;;;;;;;28.47;20.83;;;;;;;5.98;100.00;95957.00;4935845;29;20209;-79
2022/04/27 04:41:20;;;;;;;32.80;21.60;;;;;;;5.96;100.00;95949.38;4967453;28;20189;-78
2022/04/27 04:43:46;;;;;;;30.87;21.07;;;;;;;6.07;100.00;95963.25;4935699;29;20260;-80
2022/04/27 04:46:11;;;;;;;26.03;19.40;;;;;;;5.93;100.00;95957.34;4951783;29;20213;-81
2022/04/27 04:48:36;;;;;;;24.47;19.20;;;;;;;5.96;100.00;95964.03;4967309;28;20569;-81
2022/04/27 04:51:02;;;;;;;27.70;20.07;;;;;;;6.09;100.00;95962.22;4951701;29;20193;-79
2022/04/27 04:53:27;;;;;;;27.27;20.20;;;;;;;6.12;100.00;95966.34;4968291;28;20193;-79
2022/04/27 04:55:52;;;;;;;25.70;19.17;;;;;;;6.14;100.00;95974.78;4952513;28;20190;-79
2022/04/27 04:58:17;;;;;;;30.27;20.77;;;;;;;6.14;100.00;95973.03;4952487;29;20204;-79
2022/04/27 05:00:43;;;;;;;27.30;19.83;;;;;;;6.19;100.00;95976.13;4969965;28;20388;-81
2022/04/27 05:03:09;;;;;;;31.23;21.50;;;;;;;6.16;100.00;95975.50;4955478;28;20267;-79
2022/04/27 05:05:38;;;;;;;32.57;23.13;;;;;;;6.11;100.00;95973.25;4972996;28;20621;-80
2022/04/27 05:08:06;;;;;;;31.43;22.10;;;;;;;6.02;100.00;95976.50;4971281;28;20295;-80
2022/04/27 05:10:31;;;;;;;34.50;22.33;;;;;;;6.00;100.00;95980.91;4991359;28;20664;-81
2022/04/27 05:12:56;;;;;;;31.47;21.70;;;;;;;6.10;100.00;95981.09;4980259;28;20274;-81
2022/04/27 05:15:22;;;;;;;32.93;23.33;;;;;;;6.20;100.00;95976.94;4982396;28;20196;-83
2022/04/27 05:17:47;;;;;;;32.93;22.77;;;;;;;6.11;100.00;95980.19;4960134;28;20192;-86
2022/04/27 05:20:12;;;;;;;35.03;23.10;;;;;;;6.07;100.00;95987.28;4958658;28;20605;-80
2022/04/27 05:22:38;;;;;;;35.87;25.03;;;;;;;6.20;100.00;95987.25;4962832;28;20194;-81
2022/04/27 05:25:05;;;;;;;35.70;23.27;;;;;;;6.15;100.00;95987.56;4961731;28;20189;-81
2022/04/27 05:27:30;;;;;;;36.57;25.27;;;;;;;6.18;100.00;95991.66;4980467;28;20200;-80
2022/04/27 05:32:41;;;;;;;36.27;24.70;;;;;;;6.30;100.00;95995.16;5002001;28;20614;-81
2022/04/27 05:35:06;;;;;;;31.93;22.83;;;;;;;6.23;100.00;96005.06;4980033;28;20192;-81
2022/04/27 05:37:32;;;;;;;32.53;22.93;;;;;;;6.31;100.00;96010.50;4960294;28;20184;-82
2022/04/27 05:39:57;;;;;;;33.60;24.00;;;;;;;6.46;100.00;96006.84;4976930;28;20669;-81
2022/04/27 05:42:22;;;;;;;32.60;23.40;;;;;;;6.50;100.00;96015.97;4971818;28;20535;-80
2022/04/27 05:44:48;;;;;;;31.37;23.57;;;;;;;6.47;100.00;96012.81;4971124;28;20289;-79
2022/04/27 05:47:13;;;;;;;33.27;23.23;;;;;;;6.61;100.00;96014.38;4958646;28;20637;-79
2022/04/27 05:49:38;;;;;;;33.73;23.10;;;;;;;6.57;100.00;96021.53;5001861;28;20215;-82
2022/04/27 05:52:04;;;;;;;33.87;23.93;;;;;;;6.52;100.00;96024.44;5001072;28;20271;-81
2022/04/27 05:54:29;;;;;;;31.60;22.70;;;;;;;6.46;100.00;96019.72;4965550;28;20550;-82
2022/04/27 05:56:55;;;;;;;30.53;21.93;;;;;;;6.51;100.00;96027.94;4971871;28;20723;-81
2022/04/27 05:59:20;;;;;;;28.97;21.83;;;;;;;6.61;100.00;96027.28;4957821;28;20200;-82
2022/04/27 06:01:46;;;;;;;25.70;19.10;;;;;;;6.59;100.00;96035.13;4995697;28;20183;-81
2022/04/27 06:04:11;;;;;;;31.03;22.03;;;;;;;6.59;100.00;96035.13;4983974;28;20188;-81
2022/04/27 06:06:36;;;;;;;26.03;19.17;;;;;;;6.52;100.00;96034.75;4969588;28;20195;-81
2022/04/27 06:09:03;;;;;;;28.60;21.10;;;;;;;6.63;100.00;96031.41;4954986;28;20685;-82
2022/04/27 06:11:28;;;;;;;29.00;21.67;;;;;;;6.64;100.00;96038.22;4987853;28;20224;-82
2022/04/27 06:13:53;;;;;;;30.60;20.20;;;;;;;6.63;100.00;96035.75;4990783;28;20184;-83
2022/04/27 06:16:19;;;;;;;31.23;21.83;;;;;;;6.57;100.00;96044.75;4973809;28;20296;-81
2022/04/27 06:18:45;;;;;;;33.47;22.77;;;;;;;6.61;100.00;96043.59;4972511;28;20208;-82
2022/04/27 06:21:11;;;;;;;33.67;22.93;;;;;;;6.66;100.00;96046.66;4994191;28;20196;-82
2022/04/27 06:23:38;;;;;;;31.03;22.20;;;;;;;6.66;100.00;96045.84;4958175;28;20198;-82
2022/04/27 06:26:05;;;;;;;31.30;21.53;;;;;;;6.73;100.00;96049.63;4955504;28;20237;-82
2022/04/27 06:28:31;;;;;;;30.80;22.10;;;;;;;6.75;100.00;96050.34;4995583;28;20291;-81
2022/04/27 06:30:56;;;;;;;27.10;20.23;;;;;;;6.55;100.00;96048.38;4967700;28;20284;-82
2022/04/27 06:33:21;;;;;;;28.87;21.67;;;;;;;6.52;100.00;96049.41;4983202;28;20188;-81
2022/04/27 06:35:46;;;;;;;26.60;19.80;;;;;;;6.78;100.00;96057.84;4976638;28;20184;-83
2022/04/27 06:38:12;;;;;;;28.93;20.57;;;;;;;6.69;100.00;96056.75;4975462;28;20700;-83
2022/04/27 06:40:37;;;;;;;24.40;18.93;;;;;;;6.66;100.00;96057.00;5004237;28;20793;-83
2022/04/27 06:43:03;;;;;;;25.30;18.20;;;;;;;6.88;100.00;96058.81;4974952;28;20188;-82
2022/04/27 06:45:28;;;;;;;24.97;18.33;;;;;;;6.89;100.00;96060.47;4955938;28;20185;-82
2022/04/27 06:47:54;;;;;;;25.10;18.17;;;;;;;6.80;100.00;96061.13;4974274;28;20211;-82
2022/04/27 06:50:20;;;;;;;24.27;18.67;;;;;;;6.93;100.00;96069.63;5003220;28;20204;-83
2022/04/27 06:52:48;;;;;;;23.67;18.93;;;;;;;6.95;100.00;96066.94;4977368;28;20189;-82
2022/04/27 06:55:14;;;;;;;22.33;17.50;;;;;;;7.13;100.00;96080.25;4973576;28;20199;-81
2022/04/27 06:57:40;;;;;;;22.83;17.97;;;;;;;7.13;100.00;96081.06;4957010;28;20201;-82
2022/04/27 07:00:08;;;;;;;22.20;17.67;;;;;;;7.15;100.00;96083.53;4989974;28;20181;-82
2022/04/27 07:02:33;;;;;;;23.70;18.43;;;;;;;7.36;100.00;96087.94;4969534;28;20271;-82
2022/04/27 07:05:01;;;;;;;21.53;18.13;;;;;;;7.47;100.00;96083.75;4972657;28;20653;-82
2022/04/27 07:07:27;;;;;;;21.40;17.27;;;;;;;7.46;100.00;96093.25;4957293;28;20180;-83
2022/04/27 07:09:53;;;;;;;23.63;17.83;;;;;;;7.50;100.00;96088.66;5002165;28;20208;-83
2022/04/27 07:12:19;;;;;;;21.13;16.83;;;;;;;7.39;100.00;96095.47;4981614;28;20189;-82
2022/04/27 07:14:45;;;;;;;20.47;15.97;;;;;;;7.62;100.00;96093.75;4957882;28;20193;-81
2022/04/27 07:17:10;;;;;;;21.93;17.90;;;;;;;7.85;100.00;96094.56;4973607;28;20188;-82
2022/04/27 07:19:35;;;;;;;22.07;18.37;;;;;;;8.09;99.67;96101.38;4993575;28;20220;-80
2022/04/27 07:22:02;;;;;;;20.47;17.30;;;;;;;8.50;98.20;96103.38;4956415;28;20675;-82
2022/04/27 07:24:27;;;;;;;21.87;16.97;;;;;;;8.65;96.03;96103.91;4991207;28;20185;-80
2022/04/27 07:26:53;;;;;;;19.97;16.13;;;;;;;8.89;96.17;96112.31;4998568;28;20203;-79
2022/04/27 07:29:19;;;;;;;19.30;14.53;;;;;;;8.92;94.33;96106.03;4989408;28;20200;-79
2022/04/27 07:31:45;;;;;;;14.50;12.90;;;;;;;8.76;93.52;96109.88;4988616;28;20688;-80
2022/04/27 07:34:10;;;;;;;14.10;10.23;;;;;;;8.66;91.22;96111.56;4989456;28;20343;-80
2022/04/27 07:36:35;;;;;;;13.90;11.20;;;;;;;8.68;92.67;96114.03;4986204;28;20212;-80
2022/04/27 07:39:01;;;;;;;11.03;9.80;;;;;;;8.49;91.34;96114.66;4947236;28;20271;-80
2022/04/27 07:41:26;;;;;;;11.43;10.03;;;;;;;8.24;93.40;96121.72;4973081;28;20193;-79
2022/04/27 07:43:52;;;;;;;13.77;10.73;;;;;;;8.21;94.15;96116.75;5002845;28;20589;-79
2022/04/27 07:46:17;;;;;;;12.73;10.93;;;;;;;8.52;93.34;96114.41;4958276;28;20223;-79
2022/04/27 07:48:42;;;;;;;12.20;10.00;;;;;;;8.54;93.48;96122.88;4957317;28;20302;-80
2022/04/27 07:51:07;;;;;;;10.93;9.40;;;;;;;8.67;93.96;96126.16;4955065;28;20203;-81
2022/04/27 07:53:33;;;;;;;10.77;9.57;;;;;;;8.39;93.40;96134.41;4973315;28;20211;-80
2022/04/27 07:55:58;;;;;;;10.93;9.83;;;;;;;8.56;94.03;96133.91;4955480;28;20560;-80
2022/04/27 07:58:24;;;;;;;11.90;9.67;;;;;;;8.60;93.31;96143.09;4971421;28;20196;-81
2022/04/27 08:00:50;;;;;;;12.50;10.20;;;;;;;8.77;93.00;96140.00;4956416;28;20195;-79
2022/04/27 08:03:15;;;;;;;11.53;10.00;;;;;;;8.90;92.42;96139.03;4974125;28;20208;-80
2022/04/27 08:05:40;;;;;;;13.23;9.87;;;;;;;9.44;90.72;96148.44;4959318;28;20246;-80
2022/04/27 08:08:07;;;;;;;11.63;8.23;;;;;;;9.49;87.63;96147.13;5003705;28;20212;-79
2022/04/27 08:10:32;;;;;;;8.73;7.83;;;;;;;9.72;88.73;96147.00;4992204;28;20273;-81
2022/04/27 08:12:58;;;;;;;7.57;6.87;;;;;;;9.61;85.19;96150.47;4995167;28;20241;-81
2022/04/27 08:15:25;;;;;;;8.23;7.43;;;;;;;10.05;85.95;96157.13;4990465;28;20188;-82
2022/04/27 08:18:01;;;;;;;11.00;7.27;;;;;;;10.44;83.47;96152.97;4974396;28;20251;-81
2022/04/27 08:23:16;;;;;;;8.43;5.43;;;;;;;10.45;79.47;96162.41;4974475;28;20203;-81
2022/04/27 08:25:42;;;;;;;6.33;5.40;;;;;;;10.99;80.17;96166.34;4975060;28;20561;-82
2022/04/27 08:28:08;;;;;;;5.57;5.07;;;;;;;11.00;77.06;96167.16;4977333;28;20212;-80
2022/04/27 08:30:35;;;;;;;5.73;4.70;;;;;;;10.99;76.33;96161.16;4972421;28;20264;-81
2022/04/27 08:33:01;;;;;;;5.67;5.17;;;;;;;11.16;76.43;96158.84;4972537;28;20272;-81
2022/04/27 08:35:28;;;;;;;5.23;4.73;;;;;;;11.05;77.00;96162.41;4957559;28;20644;-80
2022/04/27 08:37:53;;;;;;;5.20;4.70;;;;;;;11.02;76.10;96166.06;4956250;28;20259;-80
2022/04/27 08:40:19;;;;;;;5.10;4.60;;;;;;;11.19;77.30;96164.59;4978261;28;20181;-81
2022/04/27 08:42:44;;;;;;;6.33;5.10;;;;;;;11.29;76.50;96172.38;4971332;28;20284;-80
2022/04/27 08:45:10;;;;;;;7.80;4.10;;;;;;;11.22;72.19;96166.94;4986471;28;20617;-80
2022/04/27 08:47:35;;;;;;;4.17;3.77;;;;;;;11.44;73.57;96175.41;4969039;28;20188;-80
2022/04/27 08:50:13;;;;;;;4.80;4.30;;;;;;;11.29;73.20;96169.78;4955290;28;20553;-79
2022/04/27 08:52:40;;;;;;;4.67;4.27;;;;;;;11.42;74.31;96172.94;4987554;28;20200;-82
2022/04/27 08:55:06;;;;;;;4.30;3.90;;;;;;;11.38;74.21;96183.75;4973304;28;20184;-80
2022/04/27 08:57:31;;;;;;;4.80;4.40;;;;;;;11.62;70.59;96186.75;4988614;28;20203;-80
2022/04/27 08:59:56;;;;;;;4.93;4.40;;;;;;;11.90;68.77;96182.50;4988450;28;20196;-80
2022/04/27 09:02:23;;;;;;;4.60;4.17;;;;;;;11.99;69.72;96179.06;4987698;28;20212;-81
2022/04/27 09:05:14;;;;;;;5.20;4.80;;;;;;;12.05;66.50;96182.88;4973393;28;20231;-81
2022/04/27 09:07:52;;;;;;;4.63;4.03;;;;;;;12.18;69.77;96181.59;4988619;28;20208;-81
2022/04/27 09:10:21;;;;;;;6.13;3.70;;;;;;;12.42;68.13;96182.88;4971008;28;20243;-78
2022/04/27 09:12:57;;;;;;;4.73;3.60;;;;;;;11.90;67.53;96182.50;4955024;28;20189;-79
2022/04/27 09:15:25;;;;;;;4.57;4.17;;;;;;;11.41;70.69;96189.50;4968429;28;20223;-79
2022/04/27 09:20:52;;;;;;;5.20;4.70;;;;;;;10.81;75.65;96188.75;4973485;28;20636;-82
2022/04/27 09:23:28;;;;;;;6.27;5.67;;;;;;;10.03;80.10;96184.19;4971695;28;20184;-82
2022/04/27 09:25:59;;;;;;;7.10;5.37;;;;;;;10.62;78.37;96192.13;4993563;28;20211;-81
2022/04/27 09:28:31;;;;;;;5.90;5.40;;;;;;;10.58;78.93;96185.53;4959292;28;20211;-80
2022/04/27 09:30:59;;;;;;;5.57;5.07;;;;;;;10.37;77.87;96189.97;4960064;28;20195;-81
2022/04/27 09:33:33;;;;;;;5.87;5.33;;;;;;;11.02;75.82;96199.03;4974909;28;20202;-81
2022/04/27 09:35:59;;;;;;;5.30;4.77;;;;;;;11.31;75.06;96199.09;4975825;28;20500;-80
2022/04/27 09:38:24;;;;;;;4.97;4.50;;;;;;;11.47;73.12;96198.53;4993886;28;20318;-81
2022/04/27 09:40:54;;;;;;;5.67;5.17;;;;;;;11.44;74.62;96191.81;4984073;28;20216;-81
2022/04/27 09:43:42;;;;;;;5.37;4.87;;;;;;;11.90;73.94;96192.91;4975017;28;20307;-81
2022/04/27 09:46:22;;;;;;;6.33;5.17;;;;;;;12.15;72.56;96197.50;4987464;28;20181;-80
2022/04/27 09:48:48;;;;;;;5.53;4.83;;;;;;;12.14;71.46;96195.06;4982652;28;20692;-80
2022/04/27 09:51:13;;;;;;;4.40;4.00;;;;;;;12.11;68.90;96190.13;4973847;28;20196;-81
2022/04/27 09:53:41;;;;;;;4.70;3.57;;;;;;;12.09;66.32;96198.06;4973911;28;20186;-81
2022/04/27 09:56:10;;;;;;;5.30;4.80;;;;;;;12.27;70.30;96197.31;4958952;28;20227;-81
2022/04/27 09:58:43;;;;;;;5.93;4.67;;;;;;;12.64;68.89;96199.94;4981172;28;20620;-82
2022/04/27 10:01:08;;;;;;;5.53;4.03;;;;;;;12.65;67.97;96197.19;4989236;28;20185;-79
2022/04/27 10:03:34;;;;;;;4.30;3.90;;;;;;;12.58;65.39;96193.53;4972837;28;20735;-81
2022/04/27 10:05:59;;;;;;;4.40;3.83;;;;;;;12.71;65.81;96194.00;4975719;28;20598;-81
2022/04/27 10:08:25;;;;;;;4.10;3.70;;;;;;;13.13;65.57;96192.66;4992094;28;20204;-81
2022/04/27 10:10:51;;;;;;;4.30;3.90;;;;;;;12.66;67.17;96195.41;4974872;28;20566;-80
2022/04/27 10:13:17;;;;;;;3.77;3.47;;;;;;;12.21;64.42;96197.91;4973447;28;20209;-81
2022/04/27 10:15:44;;;;;;;4.37;3.77;;;;;;;12.41;65.09;96192.50;4974040;28;20180;-81
2022/04/27 10:18:17;;;;;;;4.40;3.87;;;;;;;12.34;67.23;96194.03;4967221;28;20208;-81
2022/04/27 10:20:43;;;;;;;5.30;3.67;;;;;;;12.65;65.83;96198.97;4967141;28;20657;-81
2022/04/27 10:23:14;;;;;;;3.57;3.27;;;;;;;12.72;64.08;96198.25;4991367;28;20185;-80
2022/04/27 10:25:40;;;;;;;3.17;2.87;;;;;;;13.14;64.76;96197.72;4969798;28;20192;-80
2022/04/27 10:28:17;;;;;;;3.40;3.10;;;;;;;12.94;64.77;96196.22;4970798;28;20201;-80
2022/04/27 10:30:45;;;;;;;4.37;3.37;;;;;;;13.17;61.84;96189.63;4970605;28;20747;-80
2022/04/27 10:33:10;;;;;;;3.67;2.60;;;;;;;13.28;61.82;96192.03;4998240;28;20196;-81
2022/04/27 10:35:36;;;;;;;2.77;2.37;;;;;;;13.99;60.13;96190.34;4970693;28;20208;-80
2022/04/27 10:38:05;;;;;;;3.17;2.87;;;;;;;14.03;58.72;96197.69;4997688;28;20664;-80
2022/04/27 10:40:41;;;;;;;3.47;3.27;;;;;;;13.95;60.90;96189.00;4970500;28;20208;-80
2022/04/27 10:43:06;;;;;;;6.70;5.00;;;;;;;13.64;60.22;96197.25;4969018;28;20256;-80
2022/04/27 10:45:33;;;;;;;3.03;2.80;;;;;;;13.19;62.64;96192.94;4971718;28;20185;-80
2022/04/27 10:47:58;;;;;;;3.50;3.20;;;;;;;13.17;62.70;96194.84;4971057;28;20208;-81
2022/04/27 10:50:29;;;;;;;3.60;3.30;;;;;;;13.35;63.90;96197.50;4971430;28;20548;-80
2022/04/27 10:52:55;;;;;;;3.70;3.40;;;;;;;13.63;60.32;96200.03;4959257;28;20200;-80
2022/04/27 10:55:37;;;;;;;3.50;3.20;;;;;;;13.47;62.67;96200.69;4994873;28;20181;-81
2022/04/27 10:58:42;;;;;;;8.07;3.10;;;;;;;13.37;62.96;96202.56;4969178;28;20226;-81
2022/04/27 11:01:10;;;;;;;3.57;3.27;;;;;;;13.89;60.95;96199.09;4997246;28;21524;-82
2022/04/27 11:03:36;;;;;;;4.50;3.70;;;;;;;13.08;61.55;96205.34;4974762;28;20283;-82
2022/04/27 11:06:03;;;;;;;3.97;3.57;;;;;;;13.30;63.59;96205.75;4975814;28;20267;-81
2022/04/27 11:08:47;;;;;;;4.73;4.20;;;;;;;13.64;61.45;96210.31;4975954;28;20743;-81
2022/04/27 11:11:16;;;;;;;5.27;4.37;;;;;;;13.89;59.99;96201.69;4973506;28;20219;-80
2022/04/27 11:13:42;;;;;;;4.27;3.87;;;;;;;13.73;59.96;96211.19;4959965;28;20340;-81
2022/04/27 11:16:08;;;;;;;5.20;4.70;;;;;;;13.50;60.61;96213.44;4958356;28;20633;-81
2022/04/27 11:18:57;;;;;;;5.70;5.20;;;;;;;12.83;61.71;96212.88;5006401;28;20188;-80
2022/04/27 11:21:30;;;;;;;5.10;4.63;;;;;;;12.59;63.27;96209.97;4969269;28;20181;-81
2022/04/27 11:23:55;;;;;;;5.23;4.73;;;;;;;12.58;63.98;96213.53;4958250;28;20380;-80
2022/04/27 11:26:21;;;;;;;5.03;4.47;;;;;;;12.94;63.42;96214.47;5001200;28;20271;-81
2022/04/27 11:28:47;;;;;;;6.20;5.13;;;;;;;12.69;62.10;96211.56;4989700;28;20259;-80
2022/04/27 11:31:13;;;;;;;5.43;4.93;;;;;;;12.60;62.57;96215.03;4988328;28;20680;-81
2022/04/27 11:33:40;;;;;;;5.50;5.00;;;;;;;12.89;61.86;96222.72;4973347;28;20224;-81
2022/04/27 11:36:24;;;;;;;5.97;5.40;;;;;;;12.64;62.26;96213.78;4974076;28;20296;-80